Time;durP1;ratioP1;P1;durP2;ratioP2;P2;SDS_P1;SDS_P2;PMS_P1;PMS_P2;Temp;Humidity;BMP_temperature;BMP_pressure;BME280_temperature;BME280_humidity;BME280_pressure;Samples;Min_cycle;Max_cycle;Signal;HPM_P1;HPM_P2
2021/04/08 17:49:55;;;;;;;8.00;5.50;;;4.80;40.70;;;;;;5206171;27;20608;-84
2021/04/08 17:52:22;;;;;;;7.50;4.90;;;4.50;41.10;;;;;;5175971;27;20504;-84
2021/04/08 17:54:51;;;;;;;5.63;4.80;;;4.40;41.10;;;;;;5177026;27;20448;-84
2021/04/08 17:57:21;;;;;;;6.97;5.30;;;4.30;41.20;;;;;;5178096;27;20464;-86
2021/04/08 17:59:52;;;;;;;5.47;4.80;;;4.20;41.30;;;;;;5178055;27;20434;-84
2021/04/08 18:02:20;;;;;;;7.73;5.67;;;3.90;41.60;;;;;;5178742;27;21011;-84
2021/04/08 18:04:47;;;;;;;12.93;5.83;;;3.70;41.70;;;;;;5157558;27;20465;-85
2021/04/08 18:07:19;;;;;;;8.23;5.90;;;3.60;42.20;;;;;;5174519;27;20513;-85
2021/04/08 18:09:54;;;;;;;7.10;5.70;;;3.60;42.10;;;;;;5173072;27;20437;-84
2021/04/08 18:12:24;;;;;;;12.53;6.87;;;3.50;42.30;;;;;;5181536;27;20448;-86
2021/04/08 18:14:52;;;;;;;7.70;6.90;;;3.30;42.50;;;;;;5173785;27;20508;-87
2021/04/08 18:17:21;;;;;;;11.50;7.63;;;3.40;42.50;;;;;;5176903;27;20450;-85
2021/04/08 18:19:52;;;;;;;10.00;6.90;;;3.50;42.70;;;;;;5153883;27;20456;-88
2021/04/08 18:22:19;;;;;;;12.00;7.73;;;3.30;42.70;;;;;;5166502;27;20462;-85
2021/04/08 18:24:55;;;;;;;13.73;9.37;;;3.20;42.90;;;;;;5176303;27;20467;-85
2021/04/08 18:27:27;;;;;;;11.20;7.73;;;3.00;43.20;;;;;;5151802;27;20457;-84
2021/04/08 18:29:56;;;;;;;10.50;7.17;;;3.00;43.50;;;;;;5176123;27;20473;-85
2021/04/08 18:32:27;;;;;;;11.97;7.70;;;3.00;43.80;;;;;;5178520;27;20445;-85
2021/04/08 18:34:55;;;;;;;9.97;7.97;;;3.00;44.00;;;;;;5163204;27;20448;-85
2021/04/08 18:37:24;;;;;;;11.53;7.60;;;3.00;44.10;;;;;;5174102;27;20470;-87
2021/04/08 18:39:56;;;;;;;8.07;6.47;;;2.80;44.20;;;;;;5172449;27;20444;-86
2021/04/08 18:45:11;;;;;;;11.23;7.63;;;2.80;44.60;;;;;;5178698;27;20432;-81
2021/04/08 18:50:35;;;;;;;9.10;8.20;;;2.80;44.80;;;;;;5179149;27;20454;-86
2021/04/08 18:53:07;;;;;;;13.20;8.60;;;2.60;45.20;;;;;;5171057;27;20494;-86
2021/04/08 18:55:40;;;;;;;10.70;8.23;;;2.60;45.30;;;;;;5161003;27;20444;-85
2021/04/08 19:01:09;;;;;;;12.97;8.37;;;2.50;45.80;;;;;;5159997;27;20536;-86
2021/04/08 19:03:38;;;;;;;10.63;8.50;;;2.50;45.70;;;;;;5162092;27;20567;-86
2021/04/08 19:06:09;;;;;;;8.93;7.70;;;2.40;45.60;;;;;;5132872;27;20461;-87
2021/04/08 19:08:39;;;;;;;11.40;9.17;;;2.40;45.60;;;;;;5158550;27;20494;-87
2021/04/08 19:11:15;;;;;;;13.90;7.77;;;2.30;45.70;;;;;;5161928;27;20459;-88
2021/04/08 19:13:44;;;;;;;10.17;8.20;;;2.30;45.90;;;;;;5150941;27;20457;-86
2021/04/08 19:16:11;;;;;;;10.13;7.23;;;2.30;46.00;;;;;;5160909;27;20457;-84
2021/04/08 19:18:41;;;;;;;8.60;6.70;;;2.30;45.80;;;;;;5152360;27;20446;-84
2021/04/08 19:21:09;;;;;;;9.57;7.73;;;2.40;45.90;;;;;;5165746;27;20473;-86
2021/04/08 19:23:38;;;;;;;8.10;7.13;;;2.30;45.90;;;;;;5168576;27;20465;-87
2021/04/08 19:26:06;;;;;;;10.13;8.17;;;2.40;46.20;;;;;;5167668;27;20434;-87
2021/04/08 19:28:33;;;;;;;11.13;8.90;;;2.40;46.40;;;;;;5169702;27;20473;-88
2021/04/08 19:31:09;;;;;;;10.33;8.77;;;2.40;46.60;;;;;;5162351;27;20442;-88
2021/04/08 19:33:36;;;;;;;10.20;7.87;;;2.30;46.70;;;;;;5159589;27;20484;-84
2021/04/08 19:36:05;;;;;;;14.13;8.60;;;2.20;46.90;;;;;;5162911;27;21095;-85
2021/04/08 19:38:34;;;;;;;13.57;9.67;;;2.20;47.30;;;;;;5160892;27;20514;-85
2021/04/08 19:41:03;;;;;;;11.83;10.07;;;2.20;47.20;;;;;;5162359;27;20457;-85
2021/04/08 19:43:31;;;;;;;12.03;9.20;;;2.20;47.50;;;;;;5152857;27;20446;-86
2021/04/08 19:46:04;;;;;;;14.83;9.20;;;2.10;47.40;;;;;;5163402;27;20457;-88
2021/04/08 19:48:30;;;;;;;9.43;8.10;;;2.10;47.70;;;;;;5166378;27;20532;-90
2021/04/08 19:51:02;;;;;;;10.93;8.60;;;2.00;47.50;;;;;;5171494;27;20528;-88
2021/04/08 19:53:30;;;;;;;10.17;8.03;;;1.90;47.60;;;;;;5150755;27;20455;-84
2021/04/08 19:56:07;;;;;;;10.43;8.13;;;2.00;47.70;;;;;;5152575;27;20438;-86
2021/04/08 19:58:36;;;;;;;11.17;8.63;;;1.90;47.70;;;;;;5145037;27;20533;-84
2021/04/08 20:01:05;;;;;;;8.83;7.93;;;1.90;47.90;;;;;;5148998;27;20441;-87
2021/04/08 20:03:33;;;;;;;9.37;8.43;;;1.80;48.00;;;;;;5146873;27;20461;-85
2021/04/08 20:06:01;;;;;;;8.17;7.43;;;1.70;48.10;;;;;;5158582;27;21022;-85
2021/04/08 20:08:31;;;;;;;8.77;7.37;;;1.80;48.30;;;;;;5154831;27;20469;-86
2021/04/08 20:11:05;;;;;;;9.13;7.80;;;1.60;48.50;;;;;;5133998;27;20907;-87
2021/04/08 20:13:31;;;;;;;12.20;8.10;;;1.50;48.60;;;;;;5149433;27;20446;-86
2021/04/08 20:16:01;;;;;;;9.63;7.93;;;1.50;49.00;;;;;;5131867;27;20459;-84
2021/04/08 20:18:29;;;;;;;10.47;7.27;;;1.40;49.20;;;;;;5151390;27;20499;-84
2021/04/08 20:20:57;;;;;;;11.70;8.37;;;1.30;49.40;;;;;;5158831;27;21240;-86
2021/04/08 20:23:26;;;;;;;10.33;8.23;;;1.20;49.50;;;;;;5134575;27;20455;-84
2021/04/08 20:25:55;;;;;;;8.80;8.00;;;1.30;50.00;;;;;;5154105;27;20453;-86
2021/04/08 20:28:23;;;;;;;9.10;8.20;;;1.10;50.00;;;;;;5157532;27;20454;-86
2021/04/08 20:31:04;;;;;;;10.83;8.80;;;1.10;50.10;;;;;;5169711;27;20458;-86
2021/04/08 20:33:46;;;;;;;9.80;8.10;;;1.10;50.30;;;;;;5148150;27;20453;-84
2021/04/08 20:36:14;;;;;;;9.50;8.60;;;1.00;50.60;;;;;;5147577;27;20479;-84
2021/04/08 20:38:43;;;;;;;12.37;8.80;;;0.90;50.60;;;;;;5154103;27;20510;-87
2021/04/08 20:41:14;;;;;;;14.43;8.50;;;0.90;50.90;;;;;;5150052;27;20459;-88
2021/04/08 20:43:41;;;;;;;12.27;8.60;;;0.90;51.00;;;;;;5157023;27;20461;-84
2021/04/08 20:46:09;;;;;;;11.00;8.43;;;0.80;51.30;;;;;;5158853;27;20443;-88
2021/04/08 20:48:42;;;;;;;10.17;8.90;;;0.80;51.30;;;;;;5151771;27;20481;-85
2021/04/08 20:51:09;;;;;;;10.00;8.50;;;0.80;51.70;;;;;;5151083;27;20456;-87
2021/04/08 20:53:36;;;;;;;10.20;7.77;;;0.70;51.80;;;;;;5152606;27;20450;-86
2021/04/08 20:56:07;;;;;;;9.87;8.47;;;0.70;52.20;;;;;;5147469;27;20447;-85
2021/04/08 20:58:34;;;;;;;17.40;9.60;;;0.70;52.50;;;;;;5132984;27;20446;-83
2021/04/08 21:01:03;;;;;;;12.77;10.00;;;0.60;52.60;;;;;;5155468;27;20449;-82
2021/04/08 21:03:33;;;;;;;12.50;9.17;;;0.60;53.00;;;;;;5149033;27;20205;-82
2021/04/08 21:06:00;;;;;;;9.73;8.23;;;0.50;53.30;;;;;;5154108;27;20472;-82
2021/04/08 21:08:26;;;;;;;10.37;8.80;;;0.50;53.50;;;;;;5152184;27;20481;-82
2021/04/08 21:10:54;;;;;;;11.60;9.20;;;0.50;54.00;;;;;;5146138;27;20447;-83
2021/04/08 21:13:34;;;;;;;10.23;8.83;;;0.50;54.10;;;;;;5157186;27;20473;-81
2021/04/08 21:16:03;;;;;;;10.50;9.40;;;0.50;54.20;;;;;;5161143;27;20497;-82
2021/04/08 21:18:31;;;;;;;12.17;9.40;;;0.40;54.40;;;;;;5154453;27;20447;-82
2021/04/08 21:20:58;;;;;;;12.40;9.13;;;0.40;54.80;;;;;;5151210;27;20817;-82
2021/04/08 21:23:25;;;;;;;12.00;9.10;;;0.30;55.10;;;;;;5148182;27;20454;-82
2021/04/08 21:25:52;;;;;;;12.00;9.80;;;0.40;55.40;;;;;;5145931;27;20804;-82
2021/04/08 21:28:19;;;;;;;11.90;9.37;;;0.40;55.70;;;;;;5153534;27;20497;-83
2021/04/08 21:30:46;;;;;;;16.00;9.80;;;0.30;55.90;;;;;;5148336;27;20864;-83
2021/04/08 21:33:14;;;;;;;12.40;9.27;;;0.30;56.30;;;;;;5148110;27;20442;-82
2021/04/08 21:35:42;;;;;;;12.50;9.63;;;0.30;56.40;;;;;;5156365;27;20536;-81
2021/04/08 21:38:10;;;;;;;10.93;9.10;;;0.30;56.70;;;;;;5151534;27;20507;-82
2021/04/08 21:40:36;;;;;;;11.30;9.97;;;0.20;56.90;;;;;;5156466;27;20482;-82
2021/04/08 21:43:04;;;;;;;13.97;9.27;;;0.20;57.30;;;;;;5147595;27;20461;-82
2021/04/08 21:45:30;;;;;;;10.93;9.40;;;0.20;57.70;;;;;;5143085;27;20474;-81
2021/04/08 21:47:56;;;;;;;13.30;9.57;;;0.20;57.90;;;;;;5148442;27;20546;-82
2021/04/08 21:50:23;;;;;;;10.70;9.40;;;0.10;58.10;;;;;;5157735;27;20454;-82
2021/04/08 21:52:51;;;;;;;10.73;9.10;;;0.10;58.40;;;;;;5153271;27;20444;-83
2021/04/08 21:55:20;;;;;;;12.57;9.90;;;0.10;59.00;;;;;;5159304;27;20451;-83
2021/04/08 21:57:46;;;;;;;11.50;9.10;;;0.20;59.10;;;;;;5160963;27;20434;-83
2021/04/08 22:00:20;;;;;;;10.50;9.47;;;0.10;59.40;;;;;;5166607;27;20466;-83
2021/04/08 22:02:48;;;;;;;13.93;9.50;;;0.10;59.50;;;;;;5158803;27;20486;-83
2021/04/08 22:05:17;;;;;;;12.70;9.23;;;0.10;59.60;;;;;;5144403;28;20830;-83
2021/04/08 22:07:43;;;;;;;10.37;9.27;;;0.10;59.80;;;;;;5153241;27;20446;-82
2021/04/08 22:10:13;;;;;;;11.47;8.70;;;0.00;59.90;;;;;;5155013;27;20498;-82
2021/04/08 22:12:39;;;;;;;12.60;10.00;;;0.00;60.20;;;;;;5154970;27;20442;-83
2021/04/08 22:15:11;;;;;;;11.60;9.57;;;0.00;60.40;;;;;;5129553;27;20536;-82
2021/04/08 22:17:40;;;;;;;12.90;10.13;;;-0.10;60.80;;;;;;5153325;27;20446;-82
2021/04/08 22:20:10;;;;;;;13.00;10.20;;;-0.10;61.00;;;;;;5130814;27;20449;-82
2021/04/08 22:22:37;;;;;;;12.10;10.10;;;-0.10;61.20;;;;;;5144292;27;20524;-83
2021/04/08 22:25:05;;;;;;;14.53;9.93;;;-0.10;61.70;;;;;;5132888;27;20448;-81
2021/04/08 22:27:33;;;;;;;12.60;9.47;;;0.00;61.80;;;;;;5154524;27;20445;-82
2021/04/08 22:30:01;;;;;;;15.03;9.80;;;-0.10;61.90;;;;;;5159439;27;20474;-81
2021/04/08 22:32:28;;;;;;;14.67;9.80;;;-0.10;62.20;;;;;;5151802;27;20439;-82
2021/04/08 22:34:55;;;;;;;12.40;10.23;;;-0.10;62.50;;;;;;5152945;27;20517;-83
2021/04/08 22:37:21;;;;;;;10.77;9.70;;;-0.10;62.80;;;;;;5139740;27;20837;-82
2021/04/08 22:39:49;;;;;;;12.77;10.13;;;-0.10;62.80;;;;;;5136408;27;20526;-82
2021/04/08 22:42:16;;;;;;;12.30;10.50;;;-0.10;62.70;;;;;;5148974;27;20461;-82
2021/04/08 22:44:44;;;;;;;12.10;9.50;;;-0.10;62.80;;;;;;5136127;27;20473;-82
2021/04/08 22:47:11;;;;;;;12.53;10.23;;;0.00;63.10;;;;;;5145250;27;20446;-82
2021/04/08 22:49:37;;;;;;;10.87;9.67;;;0.00;63.10;;;;;;5130250;27;20900;-82
2021/04/08 22:52:04;;;;;;;15.80;11.80;;;0.00;63.10;;;;;;5129489;27;20455;-83
2021/04/08 22:54:31;;;;;;;13.20;10.60;;;-0.10;63.30;;;;;;5154471;27;20776;-82
2021/04/08 22:56:58;;;;;;;15.83;10.87;;;-0.10;63.50;;;;;;5153157;27;20522;-83
2021/04/08 22:59:26;;;;;;;18.43;10.70;;;-0.10;63.70;;;;;;5150930;27;20480;-82
2021/04/08 23:01:54;;;;;;;10.60;9.50;;;0.00;63.70;;;;;;5142901;27;20439;-83
2021/04/08 23:04:21;;;;;;;11.60;10.40;;;0.00;63.60;;;;;;5166759;27;20453;-83
2021/04/08 23:06:51;;;;;;;11.80;10.60;;;0.00;63.40;;;;;;5167793;27;20457;-83
2021/04/08 23:09:20;;;;;;;10.73;9.63;;;0.10;63.30;;;;;;5156569;27;20461;-84
2021/04/08 23:11:47;;;;;;;15.23;9.87;;;0.10;63.30;;;;;;5166641;27;20453;-83
2021/04/08 23:14:16;;;;;;;11.23;9.37;;;0.20;63.00;;;;;;5133721;27;20510;-83
2021/04/08 23:16:42;;;;;;;12.47;10.00;;;0.20;62.70;;;;;;5131304;27;20477;-83
2021/04/08 23:19:10;;;;;;;16.70;9.80;;;0.20;62.50;;;;;;5133370;27;20965;-83
2021/04/08 23:21:36;;;;;;;11.77;9.23;;;0.20;62.50;;;;;;5152013;27;20447;-83
2021/04/08 23:24:04;;;;;;;13.90;9.87;;;0.20;62.50;;;;;;5146673;27;20461;-83
2021/04/08 23:26:31;;;;;;;12.43;10.30;;;0.20;62.20;;;;;;5150165;27;20507;-83
2021/04/08 23:29:00;;;;;;;11.07;8.93;;;0.20;62.40;;;;;;5151082;27;20470;-82
2021/04/08 23:31:26;;;;;;;16.80;8.43;;;0.10;62.60;;;;;;5160600;27;20445;-85
2021/04/08 23:33:53;;;;;;;10.17;8.80;;;0.20;62.30;;;;;;5145305;27;20449;-82
2021/04/08 23:36:20;;;;;;;11.47;8.47;;;0.30;61.90;;;;;;5152643;27;20611;-83
2021/04/08 23:38:46;;;;;;;11.60;9.23;;;0.40;61.60;;;;;;5144749;27;20450;-82
2021/04/08 23:41:13;;;;;;;9.27;8.20;;;0.40;61.30;;;;;;5158453;27;20457;-81
2021/04/08 23:43:40;;;;;;;10.30;9.17;;;0.30;61.30;;;;;;5153976;27;20450;-84
2021/04/08 23:46:08;;;;;;;10.60;8.30;;;0.20;61.70;;;;;;5152097;27;20504;-83
2021/04/08 23:48:35;;;;;;;14.13;8.70;;;0.20;61.70;;;;;;5157631;27;20473;-81
2021/04/08 23:51:04;;;;;;;10.83;8.90;;;0.20;61.80;;;;;;5154405;27;20457;-82
2021/04/08 23:53:33;;;;;;;9.07;8.17;;;0.20;62.10;;;;;;5161692;27;20499;-83
2021/04/08 23:56:00;;;;;;;12.90;9.37;;;0.20;62.20;;;;;;5171823;27;20475;-83
2021/04/08 23:58:27;;;;;;;14.13;10.10;;;0.20;62.40;;;;;;5168025;27;20464;-83
